Time;durP1;ratioP1;P1;durP2;ratioP2;P2;SDS_P1;SDS_P2;PMS_P1;PMS_P2;Temp;Humidity;BMP_temperature;BMP_pressure;BME280_temperature;BME280_humidity;BME280_pressure;Samples;Min_cycle;Max_cycle;Signal;HPM_P1;HPM_P2
2023/02/06 00:00:36;;;;;;;;;;;;;;;13.63;74.97;104040.25;1267545;23;684;-68
2023/02/06 00:01:27;;;;;;;;;;;;;;;13.63;74.83;104050.06;1267790;23;638;-69
2023/02/06 00:02:17;;;;;;;;;;;;;;;13.63;74.63;104052.75;1267726;23;685;-69
2023/02/06 00:03:07;;;;;;;;;;;;;;;13.62;74.33;104049.19;1267478;23;1947;-69
2023/02/06 00:03:58;;;;;;;;;;;;;;;13.61;74.51;104046.59;1267770;23;665;-69
2023/02/06 00:04:48;;;;;;;;;;;;;;;13.59;74.18;104043.94;1267883;23;677;-69
2023/02/06 00:05:39;;;;;;;;;;;;;;;13.58;74.46;104046.66;1267731;23;677;-69
2023/02/06 00:06:29;;;;;;;;;;;;;;;13.54;74.29;104045.84;1267748;23;658;-69
2023/02/06 00:07:20;;;;;;;;;;;;;;;13.52;74.97;104045.91;1267761;23;744;-69
2023/02/06 00:08:10;;;;;;;;;;;;;;;13.49;74.78;104040.63;1267676;23;654;-69
2023/02/06 00:09:00;;;;;;;;;;;;;;;13.50;75.38;104034.34;1267827;23;704;-69
2023/02/06 00:09:51;;;;;;;;;;;;;;;13.49;75.10;104037.94;1267629;23;661;-69
2023/02/06 00:10:41;;;;;;;;;;;;;;;13.49;74.70;104039.72;1267811;23;693;-69
2023/02/06 00:11:32;;;;;;;;;;;;;;;13.50;74.73;104031.66;1267728;23;637;-69
2023/02/06 00:12:22;;;;;;;;;;;;;;;13.46;75.07;104032.66;1267753;23;516;-69
2023/02/06 00:13:12;;;;;;;;;;;;;;;13.46;75.28;104038.00;1267643;23;617;-69
2023/02/06 00:14:03;;;;;;;;;;;;;;;13.47;75.45;104030.84;1267784;23;633;-69
2023/02/06 00:14:53;;;;;;;;;;;;;;;13.47;74.65;104034.41;1267698;23;688;-69
2023/02/06 00:15:44;;;;;;;;;;;;;;;13.48;75.17;104033.50;1267695;23;755;-69
2023/02/06 00:16:34;;;;;;;;;;;;;;;13.48;74.66;104036.16;1267691;23;697;-69
2023/02/06 00:17:25;;;;;;;;;;;;;;;13.47;75.00;104029.06;1267679;23;613;-69
2023/02/06 00:18:15;;;;;;;;;;;;;;;13.44;75.28;104039.84;1267707;23;704;-69
2023/02/06 00:19:05;;;;;;;;;;;;;;;13.43;75.38;104032.75;1267795;23;680;-69
2023/02/06 00:19:56;;;;;;;;;;;;;;;13.43;74.96;104032.75;1267721;23;614;-69
2023/02/06 00:20:46;;;;;;;;;;;;;;;13.42;74.94;104031.00;1267701;23;630;-69
2023/02/06 00:21:37;;;;;;;;;;;;;;;13.44;74.96;104033.59;1267103;23;642;-69
2023/02/06 00:22:27;;;;;;;;;;;;;;;13.43;74.50;104029.19;1267714;23;689;-69
2023/02/06 00:23:18;;;;;;;;;;;;;;;13.42;74.86;104027.44;1267599;23;1881;-69
2023/02/06 00:24:08;;;;;;;;;;;;;;;13.40;75.02;104027.47;1267827;23;661;-70
2023/02/06 00:24:58;;;;;;;;;;;;;;;13.43;75.42;104022.03;1267656;23;534;-70
2023/02/06 00:25:49;;;;;;;;;;;;;;;13.44;74.86;104023.78;1267921;23;665;-70
2023/02/06 00:26:39;;;;;;;;;;;;;;;13.45;75.18;104020.16;1267685;23;775;-70
2023/02/06 00:27:30;;;;;;;;;;;;;;;13.44;75.40;104025.56;1267777;23;617;-70
2023/02/06 00:28:20;;;;;;;;;;;;;;;13.46;74.83;104026.41;1267713;23;679;-70
2023/02/06 00:29:11;;;;;;;;;;;;;;;13.45;74.95;104020.16;1267660;23;715;-70
2023/02/06 00:30:01;;;;;;;;;;;;;;;13.46;74.66;104023.72;1267735;23;648;-70
2023/02/06 00:30:52;;;;;;;;;;;;;;;13.45;75.25;104035.38;1267620;23;652;-71
2023/02/06 00:31:42;;;;;;;;;;;;;;;13.44;74.72;104034.47;1267754;23;606;-71
2023/02/06 00:32:32;;;;;;;;;;;;;;;13.43;75.01;104037.22;1267629;23;665;-71
2023/02/06 00:33:23;;;;;;;;;;;;;;;13.38;74.77;104029.31;1267750;23;633;-71
2023/02/06 00:34:13;;;;;;;;;;;;;;;13.39;74.75;104031.06;1267620;23;621;-71
2023/02/06 00:35:04;;;;;;;;;;;;;;;13.39;75.42;104035.53;1267626;23;611;-71
2023/02/06 00:35:54;;;;;;;;;;;;;;;13.38;75.52;104032.00;1267236;23;664;-70
2023/02/06 00:36:45;;;;;;;;;;;;;;;13.37;74.80;104030.22;1267645;23;614;-72
2023/02/06 00:37:35;;;;;;;;;;;;;;;13.38;74.84;104031.09;1267625;23;621;-72
2023/02/06 00:38:25;;;;;;;;;;;;;;;13.36;75.19;104031.13;1267675;23;629;-70
2023/02/06 00:39:16;;;;;;;;;;;;;;;13.36;75.59;104038.28;1267673;23;621;-72
2023/02/06 00:40:07;;;;;;;;;;;;;;;13.38;74.61;104034.66;1267801;23;629;-72
2023/02/06 00:40:57;;;;;;;;;;;;;;;13.39;74.77;104025.72;1267675;23;605;-71
2023/02/06 00:41:49;;;;;;;;;;;;;;;13.40;74.97;104032.84;1272651;23;524;-72
2023/02/06 00:42:39;;;;;;;;;;;;;;;13.39;74.76;104025.72;1272615;23;674;-72
2023/02/06 00:43:29;;;;;;;;;;;;;;;13.37;74.77;104032.91;1267634;23;1893;-72
2023/02/06 00:44:20;;;;;;;;;;;;;;;13.37;74.79;104026.66;1267699;23;637;-72
2023/02/06 00:45:11;;;;;;;;;;;;;;;13.36;74.86;104036.50;1267708;23;633;-69
2023/02/06 00:46:01;;;;;;;;;;;;;;;13.35;75.49;104032.06;1267631;23;603;-71
2023/02/06 00:46:51;;;;;;;;;;;;;;;13.37;75.09;104032.91;1267690;23;665;-71
2023/02/06 00:47:42;;;;;;;;;;;;;;;13.36;75.00;104025.78;1267658;23;672;-71
2023/02/06 00:48:32;;;;;;;;;;;;;;;13.36;74.87;104030.25;1267730;23;645;-71
2023/02/06 00:49:23;;;;;;;;;;;;;;;13.37;74.83;104026.66;1267685;23;763;-71
2023/02/06 00:50:13;;;;;;;;;;;;;;;13.37;75.24;104027.53;1267137;23;672;-71
2023/02/06 00:51:03;;;;;;;;;;;;;;;13.36;74.94;104023.09;1267706;23;674;-71
2023/02/06 00:51:54;;;;;;;;;;;;;;;13.37;75.50;104026.66;1267548;23;812;-70
2023/02/06 00:52:44;;;;;;;;;;;;;;;13.36;74.64;104020.44;1267711;23;653;-71
2023/02/06 00:53:35;;;;;;;;;;;;;;;13.35;75.39;104017.78;1267655;23;605;-71
2023/02/06 00:54:25;;;;;;;;;;;;;;;13.37;74.84;104018.63;1267666;23;842;-71
2023/02/06 00:55:16;;;;;;;;;;;;;;;13.38;74.84;104023.06;1267686;23;700;-71
2023/02/06 00:56:06;;;;;;;;;;;;;;;13.36;75.51;104016.88;1267558;23;621;-71
2023/02/06 00:56:56;;;;;;;;;;;;;;;13.33;75.47;104025.84;1267672;23;649;-71
2023/02/06 00:57:47;;;;;;;;;;;;;;;13.35;74.59;104028.50;1267592;23;603;-72
2023/02/06 00:58:37;;;;;;;;;;;;;;;13.34;74.87;104029.41;1267785;23;629;-73
2023/02/06 00:59:28;;;;;;;;;;;;;;;13.34;74.94;104032.97;1267624;23;625;-73
2023/02/06 01:00:18;;;;;;;;;;;;;;;13.33;75.55;104025.84;1267666;23;629;-73
2023/02/06 01:01:09;;;;;;;;;;;;;;;13.34;75.65;104037.44;1267614;23;668;-73
2023/02/06 01:01:59;;;;;;;;;;;;;;;13.34;75.57;104032.09;1267652;23;640;-73
2023/02/06 01:02:49;;;;;;;;;;;;;;;13.37;74.80;104032.03;1267763;23;641;-73
2023/02/06 01:03:40;;;;;;;;;;;;;;;13.39;74.60;104031.06;1267614;23;613;-73
2023/02/06 01:04:30;;;;;;;;;;;;;;;13.37;75.11;104021.31;1267591;23;689;-73
2023/02/06 01:05:21;;;;;;;;;;;;;;;13.39;74.66;104030.19;1267683;23;679;-73
2023/02/06 01:06:11;;;;;;;;;;;;;;;13.39;74.71;104031.06;1267696;23;646;-73
2023/02/06 01:07:01;;;;;;;;;;;;;;;13.39;75.21;104030.19;1267773;23;669;-73
2023/02/06 01:07:52;;;;;;;;;;;;;;;13.39;75.15;104025.72;1267535;23;678;-73
2023/02/06 01:08:42;;;;;;;;;;;;;;;13.40;74.90;104026.59;1267516;23;633;-73
2023/02/06 01:09:33;;;;;;;;;;;;;;;13.39;75.19;104038.22;1267613;23;625;-73
2023/02/06 01:10:23;;;;;;;;;;;;;;;13.38;75.45;104034.66;1267631;23;736;-73
2023/02/06 01:11:14;;;;;;;;;;;;;;;13.39;75.07;104040.91;1267736;23;662;-70
2023/02/06 01:12:04;;;;;;;;;;;;;;;13.37;74.76;104034.69;1267194;23;627;-73
2023/02/06 01:12:54;;;;;;;;;;;;;;;13.36;75.43;104036.50;1267645;23;633;-73
2023/02/06 01:13:45;;;;;;;;;;;;;;;13.38;75.25;104036.47;1267557;23;629;-73
2023/02/06 01:14:35;;;;;;;;;;;;;;;13.40;74.75;104042.66;1267701;23;689;-73
2023/02/06 01:15:26;;;;;;;;;;;;;;;13.38;74.74;104040.03;1267654;23;704;-73
2023/02/06 01:16:16;;;;;;;;;;;;;;;13.38;75.14;104041.81;1267621;23;672;-73
2023/02/06 01:17:07;;;;;;;;;;;;;;;13.38;75.40;104042.69;1267607;23;681;-71
2023/02/06 01:17:57;;;;;;;;;;;;;;;13.39;74.98;104038.22;1267764;23;664;-70
2023/02/06 01:18:48;;;;;;;;;;;;;;;13.37;75.24;104043.63;1267525;23;613;-70
2023/02/06 01:19:38;;;;;;;;;;;;;;;13.37;74.83;104043.63;1267172;23;657;-70
2023/02/06 01:20:28;;;;;;;;;;;;;;;13.37;74.77;104046.31;1267531;23;680;-70
2023/02/06 01:21:19;;;;;;;;;;;;;;;13.37;74.46;104032.91;1267567;23;629;-70
2023/02/06 01:22:09;;;;;;;;;;;;;;;13.37;75.32;104042.75;1267602;23;681;-70
2023/02/06 01:23:00;;;;;;;;;;;;;;;13.38;74.92;104045.38;1267523;23;668;-70
2023/02/06 01:23:50;;;;;;;;;;;;;;;13.37;75.31;104043.63;1267728;23;736;-70
2023/02/06 01:24:41;;;;;;;;;;;;;;;13.35;74.59;104041.91;1267566;23;668;-70
2023/02/06 01:25:31;;;;;;;;;;;;;;;13.35;74.60;104048.13;1267588;23;644;-70
2023/02/06 01:26:22;;;;;;;;;;;;;;;13.35;74.79;104040.09;1267532;23;673;-70
2023/02/06 01:27:12;;;;;;;;;;;;;;;13.36;74.74;104041.84;1267593;23;631;-70
2023/02/06 01:28:02;;;;;;;;;;;;;;;13.37;75.13;104046.31;1267552;23;700;-70
2023/02/06 01:28:53;;;;;;;;;;;;;;;13.35;75.29;104034.75;1267578;23;668;-70
2023/02/06 01:29:43;;;;;;;;;;;;;;;13.35;74.67;104048.13;1267659;23;665;-70
2023/02/06 01:30:34;;;;;;;;;;;;;;;13.36;74.64;104057.94;1267595;23;779;-70
2023/02/06 01:31:24;;;;;;;;;;;;;;;13.36;74.55;104046.34;1272375;23;871;-70
2023/02/06 01:32:15;;;;;;;;;;;;;;;13.36;74.73;104040.97;1272466;23;610;-71
2023/02/06 01:33:05;;;;;;;;;;;;;;;13.35;75.38;104033.84;1267604;23;656;-71
2023/02/06 01:33:56;;;;;;;;;;;;;;;13.35;75.47;104050.81;1267119;23;763;-71
2023/02/06 01:34:46;;;;;;;;;;;;;;;13.33;74.89;104041.06;1267495;23;626;-71
2023/02/06 01:35:36;;;;;;;;;;;;;;;13.32;74.74;104037.50;1267848;23;708;-71
2023/02/06 01:36:27;;;;;;;;;;;;;;;13.34;74.88;104038.34;1267570;23;614;-71
2023/02/06 01:37:17;;;;;;;;;;;;;;;13.33;74.79;104039.25;1267517;23;653;-71
2023/02/06 01:38:08;;;;;;;;;;;;;;;13.34;74.79;104040.13;1272326;23;727;-71
2023/02/06 01:38:58;;;;;;;;;;;;;;;13.33;75.22;104036.56;1273232;23;665;-71
2023/02/06 01:39:48;;;;;;;;;;;;;;;13.34;75.40;104043.69;1267703;23;645;-71
2023/02/06 01:40:39;;;;;;;;;;;;;;;13.32;75.28;104037.50;1267674;23;650;-69
2023/02/06 01:41:29;;;;;;;;;;;;;;;13.31;75.32;104033.06;1267539;23;669;-71
2023/02/06 01:42:20;;;;;;;;;;;;;;;13.33;74.81;104033.00;1267535;23;673;-72
2023/02/06 01:43:10;;;;;;;;;;;;;;;13.33;74.60;104047.28;1267434;23;1893;-71
2023/02/06 01:44:01;;;;;;;;;;;;;;;13.31;75.26;104035.72;1267615;23;697;-71
2023/02/06 01:44:51;;;;;;;;;;;;;;;13.32;74.69;104029.47;1267601;23;635;-71
2023/02/06 01:45:41;;;;;;;;;;;;;;;13.32;75.07;104037.50;1267497;23;637;-70
2023/02/06 01:46:32;;;;;;;;;;;;;;;13.30;74.69;104031.28;1267547;23;712;-70
2023/02/06 01:47:22;;;;;;;;;;;;;;;13.32;75.23;104034.81;1267521;23;622;-70
2023/02/06 01:48:13;;;;;;;;;;;;;;;13.30;74.96;104033.97;1266960;23;672;-70
2023/02/06 01:49:03;;;;;;;;;;;;;;;13.32;74.76;104033.94;1267543;23;617;-70
2023/02/06 01:49:54;;;;;;;;;;;;;;;13.31;74.76;104025.00;1267502;23;756;-70
2023/02/06 01:50:44;;;;;;;;;;;;;;;13.33;74.62;104027.66;1267650;23;610;-69
2023/02/06 01:51:34;;;;;;;;;;;;;;;13.29;74.57;104020.63;1267473;23;613;-69
2023/02/06 01:52:25;;;;;;;;;;;;;;;13.31;75.13;104021.47;1267506;23;622;-69
2023/02/06 01:53:15;;;;;;;;;;;;;;;13.30;75.02;104015.22;1267614;23;668;-70
2023/02/06 01:54:06;;;;;;;;;;;;;;;13.31;75.11;104019.66;1267525;23;696;-70
2023/02/06 01:54:56;;;;;;;;;;;;;;;13.32;74.63;104021.41;1267751;23;649;-70
2023/02/06 01:55:46;;;;;;;;;;;;;;;13.32;74.70;104018.75;1267586;23;665;-70
2023/02/06 01:56:37;;;;;;;;;;;;;;;13.30;75.26;104023.25;1267531;23;653;-69
2023/02/06 01:57:27;;;;;;;;;;;;;;;13.29;74.47;104020.63;1267530;23;644;-70
2023/02/06 01:58:18;;;;;;;;;;;;;;;13.29;75.28;104018.81;1267486;23;779;-70
2023/02/06 01:59:08;;;;;;;;;;;;;;;13.28;75.16;104022.41;1267563;23;618;-70
2023/02/06 01:59:59;;;;;;;;;;;;;;;13.30;75.45;104019.69;1267706;23;637;-69
2023/02/06 02:00:49;;;;;;;;;;;;;;;13.31;74.62;104021.47;1267554;23;638;-69
2023/02/06 02:01:40;;;;;;;;;;;;;;;13.32;75.32;104028.56;1267533;23;638;-70
2023/02/06 02:02:30;;;;;;;;;;;;;;;13.31;74.39;104022.34;1267421;23;653;-70
2023/02/06 02:03:21;;;;;;;;;;;;;;;13.30;74.70;104019.69;1267433;23;1906;-70
2023/02/06 02:04:11;;;;;;;;;;;;;;;13.30;75.22;104019.69;1267491;23;649;-70
2023/02/06 02:05:01;;;;;;;;;;;;;;;13.28;74.82;104017.06;1267497;23;673;-70
2023/02/06 02:05:52;;;;;;;;;;;;;;;13.28;74.68;104016.16;1272395;23;905;-69
2023/02/06 02:06:42;;;;;;;;;;;;;;;13.28;74.88;104013.50;1273148;23;680;-69
2023/02/06 02:07:33;;;;;;;;;;;;;;;13.29;75.17;104017.94;1267685;23;602;-70
2023/02/06 02:08:23;;;;;;;;;;;;;;;13.29;74.52;104012.56;1267472;23;672;-70
2023/02/06 02:09:14;;;;;;;;;;;;;;;13.29;74.66;104024.16;1267588;23;728;-70
2023/02/06 02:10:04;;;;;;;;;;;;;;;13.29;75.20;104010.78;1267572;23;618;-69
2023/02/06 02:10:54;;;;;;;;;;;;;;;13.30;74.46;104014.34;1267453;23;670;-69
2023/02/06 02:11:45;;;;;;;;;;;;;;;13.29;74.63;104018.81;1267607;23;756;-69
2023/02/06 02:12:35;;;;;;;;;;;;;;;13.30;75.17;104014.34;1267396;23;609;-69
2023/02/06 02:13:26;;;;;;;;;;;;;;;13.27;75.06;104015.28;1267514;23;704;-69
2023/02/06 02:14:16;;;;;;;;;;;;;;;13.24;74.94;104015.41;1267466;23;633;-69
2023/02/06 02:15:06;;;;;;;;;;;;;;;13.25;75.25;104005.56;1267467;23;696;-69
2023/02/06 02:15:57;;;;;;;;;;;;;;;13.26;75.19;104013.53;1267643;23;617;-70
2023/02/06 02:16:48;;;;;;;;;;;;;;;13.24;75.28;104007.38;1267339;23;652;-70
2023/02/06 02:17:38;;;;;;;;;;;;;;;13.24;74.78;104009.16;1266926;23;632;-70
2023/02/06 02:18:29;;;;;;;;;;;;;;;13.25;74.76;103998.41;1267447;23;691;-70
2023/02/06 02:19:19;;;;;;;;;;;;;;;13.26;75.31;104001.94;1267543;23;645;-70
2023/02/06 02:20:09;;;;;;;;;;;;;;;13.25;75.28;104001.09;1267519;23;672;-70
2023/02/06 02:21:00;;;;;;;;;;;;;;;13.24;74.86;103999.31;1267511;23;633;-70
2023/02/06 02:21:50;;;;;;;;;;;;;;;13.25;74.57;104000.22;1267358;23;673;-70
2023/02/06 02:22:41;;;;;;;;;;;;;;;13.24;74.49;103993.09;1267432;23;692;-70
2023/02/06 02:23:31;;;;;;;;;;;;;;;13.25;75.01;103993.06;1267285;23;1943;-70
2023/02/06 02:24:22;;;;;;;;;;;;;;;13.24;74.75;103993.97;1272435;23;652;-71
2023/02/06 02:25:12;;;;;;;;;;;;;;;13.24;75.38;103999.31;1266294;23;628;-70
2023/02/06 02:26:03;;;;;;;;;;;;;;;13.25;74.76;104001.09;1266008;23;645;-70
2023/02/06 02:26:53;;;;;;;;;;;;;;;13.24;74.88;103999.31;1268289;23;685;-69
2023/02/06 02:27:44;;;;;;;;;;;;;;;13.25;74.62;103995.72;1267398;23;676;-69
2023/02/06 02:28:34;;;;;;;;;;;;;;;13.25;74.80;103993.06;1267422;23;664;-69
2023/02/06 02:29:25;;;;;;;;;;;;;;;13.25;74.49;104001.09;1267389;23;633;-69
2023/02/06 02:30:15;;;;;;;;;;;;;;;13.26;75.27;103999.25;1267408;23;641;-69
2023/02/06 02:31:06;;;;;;;;;;;;;;;13.26;75.20;103997.47;1267438;23;681;-69
2023/02/06 02:31:57;;;;;;;;;;;;;;;13.24;74.42;103996.66;1266950;23;827;-70
2023/02/06 02:32:47;;;;;;;;;;;;;;;13.24;74.94;103993.97;1267495;23;672;-70
2023/02/06 02:33:38;;;;;;;;;;;;;;;13.25;74.47;103998.41;1267362;23;704;-69
2023/02/06 02:34:28;;;;;;;;;;;;;;;13.24;74.34;103993.09;1267485;23;637;-70
2023/02/06 02:35:18;;;;;;;;;;;;;;;13.24;74.79;103998.44;1267426;23;625;-70
2023/02/06 02:36:09;;;;;;;;;;;;;;;13.22;75.08;103993.13;1267450;23;645;-70
2023/02/06 02:36:59;;;;;;;;;;;;;;;13.20;75.17;103995.84;1267570;23;637;-70
2023/02/06 02:37:50;;;;;;;;;;;;;;;13.20;74.49;103995.84;1267380;23;747;-70
2023/02/06 02:38:40;;;;;;;;;;;;;;;13.20;74.88;103986.94;1267408;23;621;-70
2023/02/06 02:39:31;;;;;;;;;;;;;;;13.19;74.68;103993.19;1267413;23;609;-70
2023/02/06 02:40:21;;;;;;;;;;;;;;;13.18;75.39;103992.31;1267421;23;649;-70
2023/02/06 02:41:11;;;;;;;;;;;;;;;13.19;75.25;103995.88;1267490;23;680;-70
2023/02/06 02:42:02;;;;;;;;;;;;;;;13.18;75.22;103997.69;1267489;23;652;-70
2023/02/06 02:42:52;;;;;;;;;;;;;;;13.17;74.85;103992.34;1267389;23;676;-69
2023/02/06 02:43:43;;;;;;;;;;;;;;;13.22;74.63;103989.56;1267407;23;605;-69
2023/02/06 02:44:33;;;;;;;;;;;;;;;13.19;75.17;103985.16;1267429;23;613;-70
2023/02/06 02:45:24;;;;;;;;;;;;;;;13.20;74.54;103986.94;1267372;23;783;-69
2023/02/06 02:46:14;;;;;;;;;;;;;;;13.17;75.06;103987.88;1266793;23;649;-69
2023/02/06 02:47:05;;;;;;;;;;;;;;;13.19;74.98;103987.84;1267457;23;676;-70
2023/02/06 02:47:55;;;;;;;;;;;;;;;13.17;75.18;103984.31;1267368;23;662;-70
2023/02/06 02:48:45;;;;;;;;;;;;;;;13.17;74.64;103992.34;1267338;23;677;-70
2023/02/06 02:49:36;;;;;;;;;;;;;;;13.14;74.84;103992.41;1267389;23;661;-70
2023/02/06 02:50:26;;;;;;;;;;;;;;;13.16;74.87;103993.28;1267382;23;609;-70
2023/02/06 02:51:17;;;;;;;;;;;;;;;13.15;75.17;103991.50;1267362;23;668;-70
2023/02/06 02:52:07;;;;;;;;;;;;;;;13.14;75.37;103987.91;1267302;23;645;-70
2023/02/06 02:52:58;;;;;;;;;;;;;;;13.13;75.53;103985.28;1267416;23;645;-70
2023/02/06 02:53:48;;;;;;;;;;;;;;;13.15;75.28;103983.47;1267359;23;633;-70
2023/02/06 02:54:38;;;;;;;;;;;;;;;13.15;75.07;103979.00;1267416;23;708;-70
2023/02/06 02:55:29;;;;;;;;;;;;;;;13.16;74.94;103983.44;1267288;23;629;-70
2023/02/06 02:56:19;;;;;;;;;;;;;;;13.15;75.36;103972.78;1267411;23;680;-70
2023/02/06 02:57:10;;;;;;;;;;;;;;;13.17;75.36;103987.88;1267324;23;673;-69
2023/02/06 02:58:00;;;;;;;;;;;;;;;13.17;75.42;103981.66;1267470;23;633;-70
2023/02/06 02:58:51;;;;;;;;;;;;;;;13.17;74.54;103987.88;1267428;23;640;-70
2023/02/06 02:59:41;;;;;;;;;;;;;;;13.18;74.83;103980.72;1267534;23;633;-70
2023/02/06 03:00:32;;;;;;;;;;;;;;;13.16;74.61;103985.25;1267291;23;684;-69
2023/02/06 03:01:22;;;;;;;;;;;;;;;13.18;74.53;103986.09;1267408;23;676;-69
2023/02/06 03:02:13;;;;;;;;;;;;;;;13.18;75.10;103983.41;1267363;23;598;-69
2023/02/06 03:03:03;;;;;;;;;;;;;;;13.19;74.82;103985.16;1267280;23;1099;-69
2023/02/06 03:03:54;;;;;;;;;;;;;;;13.16;75.30;103982.56;1267447;23;673;-69
2023/02/06 03:04:44;;;;;;;;;;;;;;;13.15;74.74;103988.84;1267375;23;641;-69
2023/02/06 03:05:35;;;;;;;;;;;;;;;13.14;75.09;103979.88;1267410;23;727;-69
2023/02/06 03:06:25;;;;;;;;;;;;;;;13.16;74.78;103987.91;1267447;23;672;-70
2023/02/06 03:07:16;;;;;;;;;;;;;;;13.16;75.56;103987.91;1267260;23;734;-70
2023/02/06 03:08:06;;;;;;;;;;;;;;;13.16;75.05;103986.13;1267420;23;657;-69
2023/02/06 03:08:57;;;;;;;;;;;;;;;13.17;75.46;103977.16;1267226;23;681;-70
2023/02/06 03:09:47;;;;;;;;;;;;;;;13.16;74.77;103979.88;1267436;23;654;-69
2023/02/06 03:10:37;;;;;;;;;;;;;;;13.16;75.22;103985.25;1267350;23;672;-69
2023/02/06 03:11:28;;;;;;;;;;;;;;;13.16;74.56;103979.88;1267316;23;618;-70
2023/02/06 03:12:19;;;;;;;;;;;;;;;13.16;75.31;103985.25;1267367;23;650;-70
2023/02/06 03:13:09;;;;;;;;;;;;;;;13.15;74.78;103983.47;1267359;23;621;-69
2023/02/06 03:13:59;;;;;;;;;;;;;;;13.14;75.30;103981.69;1267288;23;699;-69
2023/02/06 03:14:50;;;;;;;;;;;;;;;13.13;74.87;103979.94;1267381;23;673;-70
2023/02/06 03:15:40;;;;;;;;;;;;;;;13.12;75.09;103983.53;1267259;23;629;-69
2023/02/06 03:16:31;;;;;;;;;;;;;;;13.13;75.38;103983.47;1267441;23;634;-69
2023/02/06 03:17:21;;;;;;;;;;;;;;;13.13;75.30;103985.28;1267173;23;598;-70
2023/02/06 03:18:12;;;;;;;;;;;;;;;13.13;75.18;103979.94;1272397;23;696;-70
2023/02/06 03:19:02;;;;;;;;;;;;;;;13.13;74.82;103980.81;1272747;23;673;-70
2023/02/06 03:19:52;;;;;;;;;;;;;;;13.13;74.46;103985.28;1267634;23;686;-70
2023/02/06 03:20:43;;;;;;;;;;;;;;;13.11;75.08;103981.75;1267307;23;700;-70
2023/02/06 03:21:33;;;;;;;;;;;;;;;13.13;74.56;103979.94;1267386;23;659;-69
2023/02/06 03:22:24;;;;;;;;;;;;;;;13.13;74.45;103977.25;1267402;23;637;-70
2023/02/06 03:23:14;;;;;;;;;;;;;;;13.09;75.46;103980.91;1267276;23;1964;-69
2023/02/06 03:24:05;;;;;;;;;;;;;;;13.08;75.17;103985.38;1267354;23;669;-70
2023/02/06 03:24:55;;;;;;;;;;;;;;;13.08;75.28;103981.81;1267520;23;641;-69
2023/02/06 03:25:46;;;;;;;;;;;;;;;13.08;74.57;103977.34;1267347;23;832;-70
2023/02/06 03:26:36;;;;;;;;;;;;;;;13.09;74.69;103980.91;1267354;23;618;-70
2023/02/06 03:27:26;;;;;;;;;;;;;;;13.09;74.55;103988.94;1267334;23;637;-69
2023/02/06 03:28:17;;;;;;;;;;;;;;;13.10;74.89;103990.72;1267313;23;657;-70
2023/02/06 03:29:07;;;;;;;;;;;;;;;13.10;74.86;103988.03;1267348;23;625;-70
2023/02/06 03:29:58;;;;;;;;;;;;;;;13.10;74.56;103988.03;1266824;23;638;-70
2023/02/06 03:30:48;;;;;;;;;;;;;;;13.08;74.57;103980.03;1267390;23;649;-70
2023/02/06 03:31:40;;;;;;;;;;;;;;;13.08;74.63;103990.75;1267472;23;657;-70
2023/02/06 03:32:30;;;;;;;;;;;;;;;13.08;75.00;103992.53;1267289;23;657;-70
2023/02/06 03:33:21;;;;;;;;;;;;;;;13.06;75.41;103995.28;1267312;23;637;-69
2023/02/06 03:34:11;;;;;;;;;;;;;;;13.05;75.32;103998.00;1267217;23;641;-70
2023/02/06 03:35:01;;;;;;;;;;;;;;;13.07;75.18;103990.81;1267188;23;702;-70
2023/02/06 03:35:52;;;;;;;;;;;;;;;13.08;74.96;103998.78;1267409;23;685;-70
2023/02/06 03:36:43;;;;;;;;;;;;;;;13.09;75.33;103983.59;1267217;23;747;-70
2023/02/06 03:37:33;;;;;;;;;;;;;;;13.08;74.70;103990.75;1267351;23;633;-69
2023/02/06 03:38:23;;;;;;;;;;;;;;;13.08;75.21;103992.53;1267301;23;661;-69
2023/02/06 03:39:14;;;;;;;;;;;;;;;13.08;75.09;103979.16;1267274;23;760;-69
2023/02/06 03:40:04;;;;;;;;;;;;;;;13.07;75.29;103986.34;1267301;23;656;-69
2023/02/06 03:40:55;;;;;;;;;;;;;;;13.08;74.82;103982.72;1267368;23;681;-70
2023/02/06 03:41:45;;;;;;;;;;;;;;;13.08;75.10;103984.50;1272141;23;669;-70
2023/02/06 03:42:36;;;;;;;;;;;;;;;13.08;74.93;103987.19;1272257;23;732;-70
2023/02/06 03:43:26;;;;;;;;;;;;;;;13.05;74.58;103977.47;1267360;23;1944;-70
2023/02/06 03:44:16;;;;;;;;;;;;;;;13.04;74.91;103983.72;1266806;23;653;-70
2023/02/06 03:45:07;;;;;;;;;;;;;;;13.05;75.12;103976.59;1267292;23;681;-70
2023/02/06 03:45:59;;;;;;;;;;;;;;;13.03;75.11;103979.28;1267349;23;642;-70
2023/02/06 03:46:49;;;;;;;;;;;;;;;13.05;74.43;103976.59;1267297;23;602;-70
2023/02/06 03:47:39;;;;;;;;;;;;;;;13.04;75.07;103982.84;1267321;23;656;-70
2023/02/06 03:48:30;;;;;;;;;;;;;;;13.04;75.31;103982.84;1267414;23;657;-70
2023/02/06 03:49:20;;;;;;;;;;;;;;;13.04;74.90;103980.19;1267390;23;669;-69
2023/02/06 03:50:11;;;;;;;;;;;;;;;13.03;74.61;103975.75;1267305;23;677;-69
2023/02/06 03:51:01;;;;;;;;;;;;;;;13.03;75.29;103975.75;1267348;23;712;-69
2023/02/06 03:51:52;;;;;;;;;;;;;;;13.04;75.26;103983.72;1267406;23;642;-69
2023/02/06 03:52:42;;;;;;;;;;;;;;;13.03;75.20;103979.28;1267369;23;641;-69
2023/02/06 03:53:33;;;;;;;;;;;;;;;13.04;74.77;103981.06;1267530;23;688;-70
2023/02/06 03:54:23;;;;;;;;;;;;;;;13.03;74.70;103981.97;1267243;23;673;-70
2023/02/06 03:55:14;;;;;;;;;;;;;;;13.02;74.50;103977.53;1267116;23;680;-69
2023/02/06 03:56:04;;;;;;;;;;;;;;;13.01;74.93;103980.25;1267177;23;625;-69
2023/02/06 03:56:54;;;;;;;;;;;;;;;13.00;74.67;103979.38;1267255;23;626;-69
2023/02/06 03:57:45;;;;;;;;;;;;;;;13.00;74.50;103979.38;1267286;23;637;-69
2023/02/06 03:58:35;;;;;;;;;;;;;;;13.02;75.26;103987.38;1272094;23;618;-69
2023/02/06 03:59:26;;;;;;;;;;;;;;;12.98;75.30;103989.22;1272976;23;681;-69
2023/02/06 04:00:16;;;;;;;;;;;;;;;13.00;74.89;103987.41;1267372;23;665;-69
2023/02/06 04:01:07;;;;;;;;;;;;;;;13.02;75.29;103992.72;1267299;23;937;-69
2023/02/06 04:01:57;;;;;;;;;;;;;;;13.01;74.60;103990.97;1267318;23;661;-69
2023/02/06 04:02:48;;;;;;;;;;;;;;;12.99;75.40;103995.47;1267307;23;625;-69
2023/02/06 04:03:38;;;;;;;;;;;;;;;12.99;74.63;103995.47;1267089;23;1959;-68
2023/02/06 04:04:28;;;;;;;;;;;;;;;12.98;75.16;103993.69;1267283;23;657;-69
2023/02/06 04:05:19;;;;;;;;;;;;;;;13.00;74.80;103987.41;1267235;23;669;-69
2023/02/06 04:06:09;;;;;;;;;;;;;;;12.99;74.97;103992.78;1267369;23;630;-69
2023/02/06 04:07:00;;;;;;;;;;;;;;;12.99;74.63;103996.34;1267379;23;684;-69
2023/02/06 04:07:52;;;;;;;;;;;;;;;12.97;74.77;103989.25;1272244;23;681;-69
2023/02/06 04:08:43;;;;;;;;;;;;;;;12.96;75.69;103992.84;1273010;23;847;-70
2023/02/06 04:09:33;;;;;;;;;;;;;;;12.96;75.78;103996.41;1267314;23;629;-69
2023/02/06 04:10:24;;;;;;;;;;;;;;;12.96;74.93;103998.22;1267307;23;714;-69
2023/02/06 04:11:14;;;;;;;;;;;;;;;12.96;75.16;103995.53;1267283;23;704;-70
2023/02/06 04:12:04;;;;;;;;;;;;;;;12.95;74.75;103997.31;1267286;23;606;-69
2023/02/06 04:12:55;;;;;;;;;;;;;;;12.94;75.27;103997.38;1268319;23;839;-69
2023/02/06 04:13:45;;;;;;;;;;;;;;;12.90;75.66;103999.22;1267231;23;668;-69
2023/02/06 04:14:36;;;;;;;;;;;;;;;12.87;75.75;103993.97;1267379;23;688;-69
2023/02/06 04:15:26;;;;;;;;;;;;;;;12.88;75.63;103992.19;1267171;23;625;-69
2023/02/06 04:16:17;;;;;;;;;;;;;;;12.88;74.92;103990.38;1267327;23;704;-70
2023/02/06 04:17:07;;;;;;;;;;;;;;;12.91;74.86;103995.63;1267238;23;662;-70
2023/02/06 04:17:57;;;;;;;;;;;;;;;12.90;75.34;103987.69;1267376;23;624;-69
2023/02/06 04:18:48;;;;;;;;;;;;;;;12.86;75.22;103987.75;1267323;23;660;-69
2023/02/06 04:19:38;;;;;;;;;;;;;;;12.87;75.52;103993.97;1267369;23;629;-70
2023/02/06 04:20:29;;;;;;;;;;;;;;;12.84;75.89;103986.91;1267305;23;657;-70
2023/02/06 04:21:19;;;;;;;;;;;;;;;12.83;75.76;103986.94;1267313;23;634;-70
2023/02/06 04:22:10;;;;;;;;;;;;;;;12.80;75.08;103985.22;1267320;23;707;-69
2023/02/06 04:23:00;;;;;;;;;;;;;;;12.81;75.29;103981.63;1267184;23;618;-69
2023/02/06 04:23:50;;;;;;;;;;;;;;;12.84;75.82;103986.03;1267320;23;629;-69
2023/02/06 04:24:41;;;;;;;;;;;;;;;12.86;75.77;103990.44;1267291;23;617;-69
2023/02/06 04:25:31;;;;;;;;;;;;;;;12.85;75.56;103991.34;1267256;23;652;-69
2023/02/06 04:26:22;;;;;;;;;;;;;;;12.85;75.41;103996.69;1267240;23;669;-70